Time;durP1;ratioP1;P1;durP2;ratioP2;P2;SDS_P1;SDS_P2;PMS_P1;PMS_P2;Temp;Humidity;BMP_temperature;BMP_pressure;BME280_temperature;BME280_humidity;BME280_pressure;Samples;Min_cycle;Max_cycle;Signal;HPM_P1;HPM_P2
2021/06/10 00:01:18;;;;;;;3.60;3.30;;;;;;;38.60;40.56;161366.28;1776149;80;21180;-81
2021/06/10 00:03:50;;;;;;;4.47;4.00;;;;;;;38.51;40.74;161343.50;1784978;80;21482;-82
2021/06/10 00:06:22;;;;;;;4.10;3.25;;;;;;;38.93;40.28;161454.78;1777123;80;21431;-82
2021/06/10 00:08:55;;;;;;;4.08;3.25;;;;;;;38.56;40.64;161355.55;1719767;83;21212;-82
2021/06/10 00:11:27;;;;;;;3.92;3.52;;;;;;;38.48;40.78;161335.44;1705671;83;21174;-82
2021/06/10 00:14:00;;;;;;;4.03;3.17;;;;;;;38.47;40.81;161332.75;1725344;82;21341;-82
2021/06/10 00:16:32;;;;;;;3.30;3.00;;;;;;;38.50;40.81;161339.44;1718984;83;21369;-82
2021/06/10 00:19:05;;;;;;;3.70;2.90;;;;;;;38.50;40.81;161339.44;1732502;82;21361;-82
2021/06/10 00:21:37;;;;;;;5.90;3.40;;;;;;;38.50;40.84;161340.81;1720019;83;21894;-82
2021/06/10 00:24:09;;;;;;;3.47;3.12;;;;;;;38.50;40.82;161340.81;1703295;83;21268;-82
2021/06/10 00:26:41;;;;;;;4.35;3.62;;;;;;;38.47;40.85;161331.44;1714558;83;21181;-82
2021/06/10 00:29:14;;;;;;;4.50;3.15;;;;;;;38.45;40.90;161327.37;1700331;83;21214;-82
2021/06/10 00:31:53;;;;;;;4.10;3.42;;;;;;;38.45;40.88;161327.37;1760251;81;21200;-83
2021/06/10 00:34:20;;;;;;;4.17;3.45;;;;;;;38.45;40.83;161327.37;1761782;81;21294;-82
2021/06/10 00:36:53;;;;;;;4.62;3.50;;;;;;;38.44;40.86;161324.70;1771899;81;21710;-82
2021/06/10 00:39:25;;;;;;;3.83;3.20;;;;;;;38.48;40.80;161335.44;1760444;81;21195;-82
2021/06/10 00:41:57;;;;;;;4.12;3.02;;;;;;;38.46;40.78;161328.75;1752477;81;21332;-82
2021/06/10 00:44:30;;;;;;;3.92;3.42;;;;;;;38.47;40.76;161332.75;1764021;81;21309;-82
2021/06/10 00:47:03;;;;;;;3.42;3.12;;;;;;;38.49;40.73;161336.75;1769018;79;21710;-82
2021/06/10 00:49:35;;;;;;;4.40;3.10;;;;;;;38.47;40.70;161331.44;1772423;81;21210;-82
2021/06/10 00:52:07;;;;;;;4.10;3.35;;;;;;;38.43;40.74;161322.02;1772076;81;21246;-81
2021/06/10 00:54:40;;;;;;;3.15;2.85;;;;;;;38.41;40.73;161315.33;1772533;81;21202;-82
2021/06/10 00:57:12;;;;;;;3.75;3.40;;;;;;;38.38;40.78;161308.64;1771952;81;21199;-82
2021/06/10 00:59:44;;;;;;;3.87;3.47;;;;;;;38.35;40.76;161300.59;1772398;81;21285;-82
2021/06/10 01:02:16;;;;;;;3.92;3.12;;;;;;;38.34;40.79;161296.59;1759934;81;21276;-82
2021/06/10 01:04:49;;;;;;;4.05;3.10;;;;;;;38.32;40.83;161292.53;1772514;81;21202;-82
2021/06/10 01:07:27;;;;;;;3.30;3.00;;;;;;;38.33;40.81;161295.22;1759984;81;21284;-82
2021/06/10 01:10:07;;;;;;;3.47;3.12;;;;;;;38.30;40.84;161287.22;1739531;81;21342;-82
2021/06/10 01:13:04;;;;;;;6.42;3.42;;;;;;;38.23;40.92;161267.13;1763542;81;21306;-81
2021/06/10 01:15:40;;;;;;;3.98;3.37;;;;;;;38.22;40.95;161264.44;1738389;81;21151;-82
2021/06/10 01:22:32;;;;;;;4.00;3.02;;;;;;;38.15;41.08;161245.59;1770976;81;21872;-81
2021/06/10 01:25:48;;;;;;;4.92;3.12;;;;;;;38.12;41.07;161238.91;1771982;81;21729;-82
2021/06/10 01:28:27;;;;;;;4.00;3.05;;;;;;;38.18;41.00;161255.02;1770947;81;21159;-82
2021/06/10 01:31:08;;;;;;;3.90;3.50;;;;;;;38.26;40.87;161276.48;1782154;80;21352;-82
2021/06/10 01:33:53;;;;;;;3.33;3.02;;;;;;;38.15;41.02;161245.59;1776259;80;21670;-81
2021/06/10 01:36:34;;;;;;;4.47;2.80;;;;;;;38.16;41.01;161249.64;1783374;80;21427;-82
2021/06/10 01:39:09;;;;;;;4.60;3.27;;;;;;;38.43;40.58;161322.02;1719943;83;21215;-82
2021/06/10 01:41:43;;;;;;;3.98;3.08;;;;;;;38.40;40.59;161314.02;1710575;83;21184;-82
2021/06/10 01:44:15;;;;;;;4.87;3.40;;;;;;;38.56;40.33;161356.86;1727789;83;21171;-82
2021/06/10 01:46:50;;;;;;;3.50;3.20;;;;;;;38.60;40.21;161367.59;1721488;83;21789;-82
2021/06/10 01:49:23;;;;;;;4.42;3.20;;;;;;;38.57;40.24;161359.55;1692527;83;21334;-82
2021/06/10 01:51:56;;;;;;;4.25;3.08;;;;;;;38.55;40.21;161352.86;1714301;83;21808;-82
2021/06/10 01:54:28;;;;;;;5.53;3.37;;;;;;;38.50;40.25;161340.81;1717397;83;21868;-81
2021/06/10 01:57:01;;;;;;;5.53;3.37;;;;;;;38.58;40.13;161360.91;1719078;83;21825;-82
2021/06/10 01:59:33;;;;;;;4.50;3.30;;;;;;;38.62;40.04;161372.97;1710525;83;21207;-82
2021/06/10 02:02:06;;;;;;;4.35;3.55;;;;;;;38.53;40.17;161348.86;1713940;83;21828;-82
2021/06/10 02:04:38;;;;;;;4.03;3.27;;;;;;;38.40;40.30;161312.64;1718726;83;21361;-82
2021/06/10 02:07:11;;;;;;;4.08;3.15;;;;;;;38.35;40.36;161300.59;1694846;83;21361;-82
2021/06/10 02:09:44;;;;;;;4.00;3.30;;;;;;;38.38;40.36;161308.64;1711395;82;21229;-81
2021/06/10 02:12:16;;;;;;;5.25;2.98;;;;;;;38.34;40.44;161296.59;1723648;82;21368;-82
2021/06/10 02:14:49;;;;;;;5.35;3.40;;;;;;;38.36;40.41;161303.28;1720127;82;21245;-82
2021/06/10 02:17:21;;;;;;;3.35;3.05;;;;;;;38.50;40.22;161339.44;1725443;82;21690;-83
2021/06/10 02:19:54;;;;;;;3.17;2.77;;;;;;;38.56;40.15;161355.55;1722897;82;21371;-82
2021/06/10 02:22:26;;;;;;;3.60;3.30;;;;;;;38.57;40.09;161359.55;1723973;82;21182;-82
2021/06/10 02:24:58;;;;;;;5.25;3.12;;;;;;;38.62;40.04;161371.61;1727599;82;21801;-82
2021/06/10 02:27:31;;;;;;;4.90;3.75;;;;;;;38.57;40.10;161359.55;1726799;82;21214;-82
2021/06/10 02:30:06;;;;;;;5.00;4.15;;;;;;;38.55;40.12;161352.86;1695881;83;21372;-82
2021/06/10 02:32:39;;;;;;;5.92;3.02;;;;;;;38.50;40.20;161339.44;1723492;82;21325;-81
2021/06/10 02:35:12;;;;;;;4.47;3.85;;;;;;;38.41;40.28;161316.70;1712341;83;21326;-82
2021/06/10 02:37:48;;;;;;;3.80;3.45;;;;;;;38.20;40.58;161259.02;1715891;83;21204;-82
2021/06/10 02:40:40;;;;;;;3.85;3.25;;;;;;;38.03;40.85;161213.44;1716051;83;21855;-82
2021/06/10 02:43:14;;;;;;;4.42;3.22;;;;;;;38.12;40.82;161237.59;1717166;82;21211;-82
2021/06/10 02:45:48;;;;;;;3.47;3.17;;;;;;;38.02;40.98;161212.13;1770126;81;21186;-82
2021/06/10 02:48:21;;;;;;;4.08;3.60;;;;;;;38.04;40.97;161216.13;1772413;81;21175;-82
2021/06/10 02:50:54;;;;;;;3.77;3.37;;;;;;;38.05;40.96;161218.81;1749841;81;21190;-82
2021/06/10 02:53:32;;;;;;;4.75;3.75;;;;;;;38.05;41.00;161220.17;1760431;81;21932;-84
2021/06/10 02:56:07;;;;;;;3.90;3.27;;;;;;;38.01;41.07;161209.44;1762681;81;21848;-84
2021/06/10 02:58:40;;;;;;;3.45;3.15;;;;;;;37.93;41.20;161186.66;1759913;81;21885;-87
2021/06/10 03:01:12;;;;;;;4.80;3.37;;;;;;;37.97;41.24;161197.39;1772400;81;21910;-84
2021/06/10 03:03:44;;;;;;;3.62;3.20;;;;;;;37.98;41.28;161200.06;1758723;81;21210;-84
2021/06/10 03:06:17;;;;;;;3.83;3.45;;;;;;;37.96;41.33;161193.39;1772381;81;21681;-84
2021/06/10 03:08:53;;;;;;;3.72;3.40;;;;;;;37.96;41.40;161194.70;1768555;81;21159;-84
2021/06/10 03:11:25;;;;;;;3.47;3.17;;;;;;;37.96;41.46;161193.39;1754305;81;21207;-84
2021/06/10 03:13:58;;;;;;;3.67;3.30;;;;;;;38.00;41.42;161206.75;1760231;81;21828;-84
2021/06/10 03:16:30;;;;;;;3.58;3.27;;;;;;;38.07;41.39;161225.53;1772437;81;21162;-84
2021/06/10 03:19:03;;;;;;;3.45;3.15;;;;;;;38.00;41.51;161205.44;1742409;81;21355;-85
2021/06/10 03:21:35;;;;;;;2.98;2.77;;;;;;;38.04;41.51;161217.50;1762618;81;21160;-87
2021/06/10 03:24:08;;;;;;;4.55;3.55;;;;;;;38.04;41.54;161217.50;1699319;84;21324;-83
2021/06/10 03:26:41;;;;;;;3.52;3.22;;;;;;;38.07;41.54;161224.17;1736014;82;21230;-83
2021/06/10 03:29:14;;;;;;;3.52;3.22;;;;;;;38.24;41.37;161271.12;1736261;82;21191;-82
2021/06/10 03:31:46;;;;;;;3.77;3.37;;;;;;;38.13;41.48;161241.59;1733263;82;21223;-81
2021/06/10 03:34:18;;;;;;;3.70;3.12;;;;;;;38.08;41.56;161228.17;1686853;84;21208;-83
2021/06/10 03:36:51;;;;;;;4.20;3.80;;;;;;;38.07;41.61;161224.17;1728367;82;21327;-81
2021/06/10 03:39:23;;;;;;;4.10;3.42;;;;;;;38.05;41.72;161220.17;1728085;83;21912;-82
2021/06/10 03:41:55;;;;;;;3.67;3.37;;;;;;;38.06;41.79;161222.86;1715747;81;21355;-82
2021/06/10 03:44:31;;;;;;;3.98;3.47;;;;;;;38.02;41.94;161212.13;1704885;83;21207;-82
2021/06/10 03:47:04;;;;;;;5.28;3.70;;;;;;;38.07;41.96;161225.53;1722530;82;21328;-82
2021/06/10 03:49:42;;;;;;;5.00;3.98;;;;;;;38.08;42.00;161228.17;1703623;83;21361;-83
2021/06/10 03:52:26;;;;;;;3.75;3.40;;;;;;;38.12;42.00;161238.91;1708875;82;21423;-82
2021/06/10 03:55:04;;;;;;;3.92;3.52;;;;;;;38.09;42.10;161229.55;1724807;82;21960;-84
2021/06/10 03:57:34;;;;;;;7.50;4.10;;;;;;;38.09;42.18;161230.86;1716365;82;21214;-83
2021/06/10 04:00:09;;;;;;;4.87;3.45;;;;;;;38.16;42.17;161248.28;1735061;82;21965;-82
2021/06/10 04:02:41;;;;;;;4.25;3.80;;;;;;;38.13;42.27;161241.59;1733867;82;21217;-83
2021/06/10 04:05:14;;;;;;;7.78;3.40;;;;;;;38.12;42.34;161238.91;1736228;82;21194;-83
2021/06/10 04:07:47;;;;;;;5.55;3.50;;;;;;;38.14;42.40;161242.91;1720914;82;21187;-83
2021/06/10 04:10:20;;;;;;;3.83;3.47;;;;;;;38.16;42.45;161249.64;1694635;84;21824;-83
2021/06/10 04:12:52;;;;;;;4.03;3.62;;;;;;;38.16;42.53;161248.28;1694528;84;21387;-82
2021/06/10 04:15:26;;;;;;;4.50;3.62;;;;;;;38.15;42.60;161246.97;1694414;84;21388;-82
2021/06/10 04:18:00;;;;;;;4.35;3.67;;;;;;;38.18;42.63;161253.64;1694595;83;21340;-82
2021/06/10 04:20:32;;;;;;;5.80;4.00;;;;;;;38.18;42.68;161255.02;1694466;84;21332;-81
2021/06/10 04:23:04;;;;;;;5.92;3.92;;;;;;;38.17;42.70;161252.33;1694485;84;21276;-80
2021/06/10 04:25:36;;;;;;;4.40;3.65;;;;;;;38.15;42.75;161246.97;1694452;84;21186;-82
2021/06/10 04:28:09;;;;;;;4.28;3.70;;;;;;;38.23;42.71;161267.13;1694559;84;21400;-81
2021/06/10 04:30:41;;;;;;;4.20;3.80;;;;;;;38.30;42.64;161285.86;1694570;84;21288;-82
2021/06/10 04:33:14;;;;;;;5.62;3.90;;;;;;;38.24;42.67;161271.12;1692418;83;22040;-80
2021/06/10 04:35:46;;;;;;;4.75;3.90;;;;;;;38.26;42.70;161276.48;1686730;85;21195;-81
2021/06/10 04:38:18;;;;;;;5.85;3.98;;;;;;;38.14;42.87;161242.91;1686770;85;21182;-81
2021/06/10 04:40:50;;;;;;;4.30;3.70;;;;;;;38.15;42.93;161245.59;1686822;85;21254;-80
2021/06/10 04:43:23;;;;;;;4.15;3.75;;;;;;;38.26;42.78;161276.48;1687276;85;21182;-80
2021/06/10 04:46:02;;;;;;;5.58;3.98;;;;;;;38.31;42.73;161288.53;1686868;85;21298;-81
2021/06/10 04:48:31;;;;;;;4.42;3.83;;;;;;;38.32;42.70;161292.53;1686921;83;21757;-81
2021/06/10 04:51:03;;;;;;;5.08;4.00;;;;;;;38.29;42.75;161283.17;1686919;85;21230;-81
2021/06/10 04:53:36;;;;;;;3.77;3.37;;;;;;;38.22;42.81;161264.44;1686917;85;21686;-81
2021/06/10 04:56:09;;;;;;;4.58;3.70;;;;;;;38.26;42.81;161275.13;1686805;85;21237;-81
2021/06/10 04:58:41;;;;;;;3.60;3.30;;;;;;;38.24;42.84;161271.12;1686778;85;21204;-82
2021/06/10 05:01:14;;;;;;;3.98;3.67;;;;;;;38.17;42.92;161250.97;1686687;85;21238;-82
2021/06/10 05:03:46;;;;;;;3.92;3.55;;;;;;;38.11;43.08;161234.91;1686915;85;21433;-82
2021/06/10 05:06:19;;;;;;;5.17;3.55;;;;;;;38.08;43.19;161228.17;1686822;84;21257;-81
2021/06/10 05:08:52;;;;;;;5.53;3.58;;;;;;;38.17;43.04;161250.97;1686869;84;21250;-80
2021/06/10 05:11:24;;;;;;;4.62;3.58;;;;;;;38.43;42.74;161320.70;1686685;85;21246;-81
2021/06/10 05:13:57;;;;;;;4.72;3.77;;;;;;;38.27;42.91;161277.81;1686706;85;21261;-81
2021/06/10 05:16:29;;;;;;;4.80;3.87;;;;;;;38.35;42.86;161299.28;1687015;85;21344;-81
2021/06/10 05:19:02;;;;;;;4.28;3.70;;;;;;;38.39;42.74;161311.33;1686819;85;21253;-81
2021/06/10 05:21:34;;;;;;;4.33;3.65;;;;;;;38.38;42.79;161307.28;1686895;85;21281;-81
2021/06/10 05:24:08;;;;;;;6.33;4.30;;;;;;;38.37;42.80;161305.97;1686933;85;21255;-81
2021/06/10 05:26:41;;;;;;;5.87;4.42;;;;;;;38.35;42.85;161299.28;1686940;85;21251;-81
2021/06/10 05:29:13;;;;;;;8.13;3.98;;;;;;;38.39;42.85;161309.97;1686907;84;21420;-81
2021/06/10 05:31:46;;;;;;;4.72;3.72;;;;;;;38.44;42.86;161324.70;1686882;85;21281;-80
2021/06/10 05:34:19;;;;;;;4.47;3.80;;;;;;;38.44;42.74;161324.70;1686716;83;21312;-81
2021/06/10 05:36:51;;;;;;;4.17;3.77;;;;;;;38.44;42.77;161323.37;1686685;85;21289;-79
2021/06/10 05:39:23;;;;;;;4.58;3.77;;;;;;;38.46;42.79;161328.75;1686819;85;21301;-81
2021/06/10 05:41:56;;;;;;;4.92;4.05;;;;;;;38.62;42.72;161372.97;1686772;85;21246;-79
2021/06/10 05:44:28;;;;;;;5.17;4.67;;;;;;;38.71;42.75;161397.13;1686785;85;21258;-79
2021/06/10 05:47:01;;;;;;;5.55;3.85;;;;;;;38.88;42.69;161442.73;1686698;85;21249;-80
2021/06/10 05:49:34;;;;;;;3.92;3.62;;;;;;;38.72;42.86;161398.45;1687018;85;21348;-79
2021/06/10 05:52:06;;;;;;;4.40;3.85;;;;;;;38.79;42.77;161417.25;1686796;85;21215;-80
2021/06/10 05:54:38;;;;;;;10.50;4.97;;;;;;;38.83;42.76;161427.98;1686792;85;21214;-80
2021/06/10 05:57:11;;;;;;;3.95;3.60;;;;;;;38.86;42.79;161436.00;1686911;85;21330;-78
2021/06/10 05:59:47;;;;;;;8.03;3.83;;;;;;;38.81;42.85;161422.61;1686909;85;21333;-79
2021/06/10 06:02:19;;;;;;;3.70;3.40;;;;;;;38.89;42.78;161444.05;1686943;85;21215;-80
2021/06/10 06:04:51;;;;;;;3.98;3.45;;;;;;;38.88;42.77;161442.73;1686753;84;21210;-81
2021/06/10 06:07:24;;;;;;;4.22;3.30;;;;;;;38.96;42.66;161465.47;1686793;85;21254;-79
2021/06/10 06:09:56;;;;;;;4.67;3.83;;;;;;;39.03;42.60;161484.28;1686733;85;21195;-80
2021/06/10 06:12:31;;;;;;;6.83;3.90;;;;;;;39.06;42.61;161492.28;1686763;85;21243;-80
2021/06/10 06:15:04;;;;;;;4.20;3.37;;;;;;;39.00;42.71;161474.91;1686889;85;21242;-80
2021/06/10 06:17:36;;;;;;;5.47;3.85;;;;;;;39.11;42.68;161504.44;1686767;85;21182;-80
2021/06/10 06:20:10;;;;;;;4.97;3.83;;;;;;;39.15;42.71;161515.12;1686736;85;21206;-81
2021/06/10 06:22:47;;;;;;;4.22;3.60;;;;;;;39.13;42.88;161511.13;1686995;85;21384;-80
2021/06/10 06:25:20;;;;;;;3.77;3.40;;;;;;;39.23;42.77;161536.62;1687042;85;21290;-80
2021/06/10 06:27:52;;;;;;;4.08;3.62;;;;;;;39.26;42.77;161546.00;1686755;85;21246;-80
2021/06/10 06:30:26;;;;;;;4.00;3.37;;;;;;;39.26;42.80;161544.63;1686771;85;21243;-80
2021/06/10 06:32:58;;;;;;;4.20;3.80;;;;;;;39.28;42.74;161551.36;1686861;85;21724;-80
2021/06/10 06:35:30;;;;;;;4.55;3.58;;;;;;;39.32;42.70;161562.06;1686698;85;21321;-80
2021/06/10 06:38:03;;;;;;;6.47;3.90;;;;;;;39.40;42.55;161583.55;1686866;85;21269;-80
2021/06/10 06:40:35;;;;;;;3.80;3.45;;;;;;;39.40;42.58;161583.55;1686759;85;21257;-80
2021/06/10 06:43:09;;;;;;;3.80;3.42;;;;;;;39.46;42.48;161598.30;1686977;85;21253;-80
2021/06/10 06:45:41;;;;;;;6.15;3.12;;;;;;;39.50;42.49;161610.41;1686807;85;21203;-80
2021/06/10 06:48:14;;;;;;;3.45;3.15;;;;;;;39.46;42.57;161599.61;1686788;85;21297;-80
2021/06/10 06:50:47;;;;;;;5.40;3.05;;;;;;;39.48;42.59;161603.63;1686771;85;21827;-80
2021/06/10 06:53:19;;;;;;;3.10;2.85;;;;;;;39.49;42.68;161606.31;1686754;85;21206;-80
2021/06/10 06:55:52;;;;;;;3.37;2.90;;;;;;;39.52;42.71;161614.41;1686654;85;21262;-81
2021/06/10 06:58:26;;;;;;;3.05;2.72;;;;;;;39.57;42.68;161627.84;1685779;85;21385;-80
2021/06/10 07:00:58;;;;;;;3.35;3.05;;;;;;;39.78;42.43;161684.16;1686697;85;21257;-80
2021/06/10 07:03:30;;;;;;;3.33;3.02;;;;;;;39.78;42.46;161684.16;1686830;85;21305;-80
2021/06/10 07:06:03;;;;;;;3.67;2.58;;;;;;;39.89;42.28;161713.66;1686940;85;21710;-80
2021/06/10 07:08:35;;;;;;;4.15;3.20;;;;;;;39.93;42.20;161725.78;1686830;85;21304;-81
2021/06/10 07:11:07;;;;;;;3.55;2.65;;;;;;;40.01;42.09;161747.22;1686755;85;21225;-81
2021/06/10 07:13:41;;;;;;;4.00;2.42;;;;;;;40.07;42.02;161763.34;1665725;85;21301;-80
2021/06/10 07:16:14;;;;;;;5.00;2.77;;;;;;;40.06;41.98;161761.98;1686820;85;21202;-80
2021/06/10 07:18:47;;;;;;;3.47;2.20;;;;;;;40.11;41.93;161774.05;1686660;85;21776;-80
2021/06/10 07:21:20;;;;;;;3.98;2.70;;;;;;;40.11;41.84;161774.05;1686869;85;21183;-80
2021/06/10 07:23:52;;;;;;;2.40;2.20;;;;;;;40.15;41.74;161784.80;1686756;85;21258;-80
2021/06/10 07:26:25;;;;;;;3.25;2.45;;;;;;;40.16;41.58;161788.80;1687067;85;21286;-80
2021/06/10 07:28:57;;;;;;;2.75;2.45;;;;;;;40.14;41.58;161783.47;1686857;85;21225;-80
2021/06/10 07:31:29;;;;;;;1.98;1.87;;;;;;;40.16;41.56;161787.48;1687290;85;21198;-80
2021/06/10 07:34:04;;;;;;;2.52;2.27;;;;;;;40.20;41.53;161799.55;1686879;85;21249;-80
2021/06/10 07:36:36;;;;;;;2.62;2.42;;;;;;;40.34;41.45;161837.17;1686771;83;21257;-80
2021/06/10 07:39:10;;;;;;;4.33;2.30;;;;;;;40.49;41.26;161877.44;1686852;85;21293;-80
2021/06/10 07:41:43;;;;;;;3.70;2.85;;;;;;;40.50;41.13;161878.75;1686771;85;21675;-81
2021/06/10 07:44:15;;;;;;;2.20;2.00;;;;;;;40.42;41.31;161857.31;1686963;85;21206;-80
2021/06/10 07:46:48;;;;;;;2.05;1.77;;;;;;;40.48;41.33;161874.75;1686826;85;21756;-80
2021/06/10 07:49:20;;;;;;;3.92;2.00;;;;;;;40.55;41.29;161893.52;1686876;85;21209;-80
2021/06/10 07:51:52;;;;;;;2.25;2.00;;;;;;;40.88;40.85;161982.13;1686837;85;21202;-81
2021/06/10 07:54:25;;;;;;;2.10;1.90;;;;;;;40.80;40.80;161960.67;1665687;85;21207;-80
2021/06/10 07:56:58;;;;;;;2.10;1.90;;;;;;;40.75;40.87;161945.91;1686876;85;21257;-80
2021/06/10 07:59:32;;;;;;;2.20;2.00;;;;;;;40.77;40.92;161952.61;1687044;85;21344;-81
2021/06/10 08:02:05;;;;;;;2.10;1.90;;;;;;;40.79;40.93;161956.67;1687009;85;21226;-81
2021/06/10 08:04:37;;;;;;;2.65;1.90;;;;;;;40.85;40.83;161972.75;1687015;85;21262;-80
2021/06/10 08:07:11;;;;;;;2.80;1.80;;;;;;;40.98;40.67;162010.34;1687054;85;22182;-81
2021/06/10 08:09:44;;;;;;;1.80;1.70;;;;;;;41.10;40.46;162041.19;1686952;85;21202;-80
2021/06/10 08:12:16;;;;;;;2.15;1.85;;;;;;;41.14;40.39;162053.31;1686866;85;21206;-80
2021/06/10 08:14:50;;;;;;;2.90;2.02;;;;;;;40.92;40.63;161992.89;1686870;85;21187;-80
2021/06/10 08:17:22;;;;;;;3.08;1.80;;;;;;;41.35;40.22;162108.36;1686859;85;21366;-80
2021/06/10 08:19:54;;;;;;;1.60;1.50;;;;;;;41.17;40.30;162060.06;1686766;84;21249;-81
2021/06/10 08:22:26;;;;;;;2.00;1.80;;;;;;;41.34;40.20;162107.05;1686916;85;21246;-80
2021/06/10 08:25:00;;;;;;;2.25;1.77;;;;;;;41.41;40.11;162125.81;1686793;85;21211;-80
2021/06/10 08:27:32;;;;;;;2.20;2.00;;;;;;;41.70;39.81;162202.39;1686675;85;21249;-81
2021/06/10 08:30:06;;;;;;;1.95;1.65;;;;;;;41.49;39.95;162145.97;1686857;85;21206;-81
2021/06/10 08:32:38;;;;;;;2.65;1.95;;;;;;;41.57;39.92;162168.84;1686810;85;21238;-81
2021/06/10 08:35:11;;;;;;;2.02;1.77;;;;;;;41.56;39.95;162164.78;1686909;85;21238;-81
2021/06/10 08:37:44;;;;;;;2.37;1.77;;;;;;;41.60;39.88;162176.92;1686751;83;21253;-80
2021/06/10 08:40:16;;;;;;;2.12;1.92;;;;;;;41.64;39.84;162186.31;1686903;84;21231;-81
2021/06/10 08:42:48;;;;;;;2.10;1.87;;;;;;;41.67;39.71;162194.37;1687135;85;21187;-80
2021/06/10 08:45:21;;;;;;;1.82;1.72;;;;;;;41.72;39.54;162207.78;1686814;85;21210;-81
2021/06/10 08:47:53;;;;;;;2.55;1.90;;;;;;;41.75;39.50;162215.84;1686945;85;21243;-81
2021/06/10 08:50:28;;;;;;;2.25;1.70;;;;;;;41.84;39.28;162240.00;1686825;85;21225;-81
2021/06/10 08:53:01;;;;;;;2.22;2.00;;;;;;;41.84;39.11;162240.00;1686896;85;21229;-80
2021/06/10 08:55:33;;;;;;;2.83;2.00;;;;;;;41.77;39.01;162221.22;1687186;85;21384;-80
2021/06/10 08:58:06;;;;;;;2.75;1.90;;;;;;;41.69;38.94;162201.08;1686747;85;21824;-80
2021/06/10 09:00:39;;;;;;;1.80;1.70;;;;;;;41.72;38.86;162207.78;1686802;85;21682;-80
2021/06/10 09:03:11;;;;;;;2.30;2.10;;;;;;;41.73;38.66;162210.47;1686734;85;21202;-81
2021/06/10 09:05:45;;;;;;;2.30;2.10;;;;;;;41.73;38.58;162210.47;1687009;85;21305;-81
2021/06/10 09:08:19;;;;;;;2.30;2.10;;;;;;;41.69;38.53;162199.70;1664604;85;21254;-81
2021/06/10 09:10:53;;;;;;;1.90;1.75;;;;;;;41.65;38.50;162189.00;1666026;85;21210;-81
2021/06/10 09:13:30;;;;;;;2.40;2.20;;;;;;;41.63;38.49;162184.94;1644712;85;21303;-81
2021/06/10 09:16:24;;;;;;;2.10;1.82;;;;;;;41.67;38.57;162194.37;1665338;85;21221;-81
2021/06/10 09:19:16;;;;;;;2.67;2.10;;;;;;;41.72;38.65;162209.14;1686865;85;21253;-81
2021/06/10 09:21:55;;;;;;;;;;;;;;;41.74;38.68;162213.16;1689256;85;21242;-81
2021/06/10 09:24:35;;;;;;;5.40;2.10;;;;;;;41.78;38.76;162223.91;1686864;85;20225;-80
2021/06/10 09:27:11;;;;;;;2.15;1.95;;;;;;;41.83;38.83;162238.69;1686872;85;21250;-80
2021/06/10 09:29:47;;;;;;;3.02;2.20;;;;;;;41.88;38.79;162252.08;1686898;85;21210;-80
2021/06/10 09:32:35;;;;;;;2.33;1.92;;;;;;;41.92;38.67;162262.84;1686783;85;21238;-81
2021/06/10 09:35:06;;;;;;;2.47;2.22;;;;;;;41.94;38.52;162269.55;1686723;85;21301;-80
2021/06/10 09:37:42;;;;;;;3.55;2.00;;;;;;;42.05;38.30;162297.81;1687019;85;21392;-83
2021/06/10 09:40:20;;;;;;;2.62;2.42;;;;;;;42.07;38.21;162304.52;1693815;83;21224;-81
2021/06/10 09:42:52;;;;;;;2.85;2.42;;;;;;;42.06;38.12;162301.83;1697043;83;21392;-81
2021/06/10 09:45:30;;;;;;;2.83;2.50;;;;;;;42.02;37.98;162289.75;1697093;84;21328;-82
2021/06/10 09:48:05;;;;;;;2.30;2.10;;;;;;;42.04;37.84;162296.44;1696982;84;21256;-81
2021/06/10 09:50:53;;;;;;;2.52;2.25;;;;;;;42.01;37.78;162287.06;1697030;84;21229;-81
2021/06/10 09:53:23;;;;;;;3.30;2.30;;;;;;;41.96;37.76;162274.98;1696645;84;21246;-80
2021/06/10 09:56:00;;;;;;;5.47;2.42;;;;;;;41.94;37.78;162269.55;1697042;84;21221;-81
2021/06/10 09:58:38;;;;;;;2.40;2.20;;;;;;;41.95;37.68;162272.28;1695690;84;21245;-80
2021/06/10 10:01:20;;;;;;;2.15;1.98;;;;;;;41.91;37.71;162260.16;1697150;84;21250;-80
2021/06/10 10:03:51;;;;;;;6.60;2.00;;;;;;;41.85;37.70;162244.02;1696864;83;21182;-81
2021/06/10 10:06:26;;;;;;;2.92;2.27;;;;;;;41.78;37.54;162223.91;1697133;84;21931;-81
2021/06/10 10:09:00;;;;;;;2.10;1.90;;;;;;;41.71;37.52;162205.09;1697232;84;21396;-80
2021/06/10 10:11:34;;;;;;;4.15;1.80;;;;;;;41.67;37.48;162194.37;1697120;84;21752;-80
2021/06/10 10:14:12;;;;;;;1.82;1.72;;;;;;;41.68;37.49;162197.02;1697087;84;21242;-81
2021/06/10 10:16:44;;;;;;;2.10;2.00;;;;;;;41.69;37.49;162199.70;1696975;84;21200;-81
2021/06/10 10:19:16;;;;;;;2.10;1.90;;;;;;;41.63;37.52;162183.63;1696949;84;21221;-81
2021/06/10 10:21:54;;;;;;;3.35;2.55;;;;;;;41.59;37.53;162172.86;1670456;84;21244;-81
2021/06/10 10:24:24;;;;;;;3.25;1.87;;;;;;;41.53;37.57;162158.03;1697007;84;21229;-81
2021/06/10 10:26:57;;;;;;;2.52;2.02;;;;;;;41.60;37.47;162175.55;1697160;84;21927;-80
2021/06/10 10:29:29;;;;;;;2.25;2.05;;;;;;;41.64;37.43;162187.63;1696985;84;21245;-81
2021/06/10 10:32:02;;;;;;;2.10;1.92;;;;;;;41.60;37.47;162175.55;1697235;84;21360;-81
2021/06/10 10:34:35;;;;;;;1.87;1.77;;;;;;;41.54;37.60;162159.41;1696928;84;21682;-81
2021/06/10 10:37:26;;;;;;;2.90;2.40;;;;;;;41.64;37.59;162187.63;1669548;84;21737;-81
2021/06/10 10:39:58;;;;;;;2.67;2.42;;;;;;;41.68;37.56;162197.02;1695534;83;21567;-81
2021/06/10 10:42:34;;;;;;;3.30;2.35;;;;;;;41.74;37.61;162214.47;1686792;85;21333;-81
2021/06/10 10:45:17;;;;;;;3.65;2.70;;;;;;;41.81;37.54;162233.30;1686668;85;21215;-81
2021/06/10 10:48:01;;;;;;;2.45;2.22;;;;;;;41.88;37.42;162253.45;1686755;85;21230;-81
2021/06/10 10:50:44;;;;;;;3.15;2.83;;;;;;;41.89;37.47;162256.16;1686729;85;21316;-80
2021/06/10 10:53:21;;;;;;;3.52;2.55;;;;;;;41.88;37.79;162250.77;1686696;85;21261;-81
2021/06/10 10:56:10;;;;;;;3.05;2.50;;;;;;;41.88;37.98;162250.77;1686710;85;21282;-81
2021/06/10 10:58:43;;;;;;;3.43;2.50;;;;;;;41.89;37.96;162254.78;1687032;85;21206;-82
2021/06/10 11:01:16;;;;;;;5.08;2.52;;;;;;;42.00;38.01;162284.38;1643426;85;21372;-81
2021/06/10 11:03:51;;;;;;;2.98;2.70;;;;;;;42.01;38.12;162287.06;1643920;85;21384;-81
2021/06/10 11:06:29;;;;;;;5.42;2.87;;;;;;;42.06;38.39;162301.83;1686954;85;21235;-81
2021/06/10 11:09:20;;;;;;;2.75;2.30;;;;;;;42.12;38.55;162317.97;1686737;85;21309;-80
2021/06/10 11:11:59;;;;;;;3.80;2.75;;;;;;;42.19;38.60;162336.75;1668535;85;21206;-81
2021/06/10 11:14:54;;;;;;;3.10;2.80;;;;;;;42.24;38.67;162350.20;1686791;85;21597;-81
2021/06/10 11:17:32;;;;;;;3.85;3.10;;;;;;;42.29;38.74;162363.61;1686681;85;21849;-81
2021/06/10 11:20:11;;;;;;;3.20;2.90;;;;;;;42.36;38.79;162382.45;1686903;85;21760;-81
2021/06/10 11:22:44;;;;;;;2.90;2.60;;;;;;;42.43;38.81;162401.28;1686709;85;21195;-82
2021/06/10 11:25:31;;;;;;;3.22;2.70;;;;;;;42.44;38.92;162403.97;1686784;85;21265;-81
2021/06/10 11:28:16;;;;;;;2.67;2.47;;;;;;;42.51;38.80;162422.77;1686675;83;21301;-81
2021/06/10 11:30:50;;;;;;;3.58;2.58;;;;;;;42.53;38.74;162426.83;1686967;85;21215;-81
2021/06/10 11:33:25;;;;;;;3.20;2.90;;;;;;;42.65;38.52;162459.08;1686949;85;21317;-80
2021/06/10 11:36:06;;;;;;;2.70;2.50;;;;;;;42.85;38.08;162514.17;1686781;84;21294;-81
2021/06/10 11:38:43;;;;;;;2.77;2.58;;;;;;;42.95;38.25;162541.05;1686956;85;21356;-81
2021/06/10 11:41:26;;;;;;;2.75;2.55;;;;;;;42.72;37.54;162479.19;1693703;83;21698;-81
2021/06/10 11:44:00;;;;;;;2.67;2.47;;;;;;;42.72;37.54;162479.19;1720013;83;21211;-81
2021/06/10 11:46:38;;;;;;;4.28;2.60;;;;;;;42.76;38.02;162490.00;1720149;83;21263;-81
2021/06/10 11:49:11;;;;;;;3.17;2.60;;;;;;;42.82;37.96;162504.78;1720093;83;21235;-81
2021/06/10 11:51:45;;;;;;;3.30;2.72;;;;;;;42.75;37.68;162487.31;1719882;83;21235;-81
2021/06/10 11:54:18;;;;;;;2.83;2.50;;;;;;;42.80;37.80;162500.77;1719975;83;21203;-81
2021/06/10 11:56:56;;;;;;;6.62;2.87;;;;;;;42.68;37.90;162467.09;1719877;83;21298;-80
2021/06/10 11:59:29;;;;;;;6.37;2.83;;;;;;;42.75;37.75;162487.31;1719961;83;21298;-81
2021/06/10 12:02:04;;;;;;;3.75;2.67;;;;;;;42.81;37.73;162503.45;1720116;83;21223;-81